MiSS Danielle — WDG8493 — position and weather

sailwx.info

Track history (hours):
 
Tides and Currents Weather Stations Pressure Air Temp Water Temp Dewpoint Dewpoint Depression Visibility Wind Speed Wind Dir Waves Ship Positions

MiSS Danielle

Owner: Chem Carriers Towing, LLC, Sunshine, LA. More information available from US FCC via Universal Licensing System and Coast Guard Vessel Documentation Center.

Last reported at 2017-Sep-15 04:47 UTC. Time now 2017-Sep-24 03:34 UTC.
Position N 29°33' W 090°24'.
Warning: this ship's position is 8 days out of date.

Length 24 m; draft 3 m.

Type: Towing. MMSI: 367578080.

Date/timePositionNaut miles runAvg speedWind from/ knotsBaromVisibWave heightAir tempDewpointWater temp
2017-Sep-15 04:47N 29°33' W 090°24'0 0.3
2017-Sep-15 04:30N 29°33' W 090°24'1 1.2
2017-Sep-15 04:00N 29°33' W 090°25'2 4.6
2017-Sep-15 03:29N 29°33' W 090°28'2 4.6
2017-Sep-15 03:00N 29°34' W 090°30'2 4.6
2017-Sep-15 02:30N 29°34' W 090°33'2 4.3
2017-Sep-15 02:00N 29°35' W 090°35'2 4.1
2017-Sep-15 01:30N 29°35' W 090°38'2 4.2
2017-Sep-15 01:00N 29°36' W 090°40'1 1.8
2017-Sep-15 00:30N 29°36' W 090°41'2 3.2
2017-Sep-15 00:00N 29°37' W 090°42'2 3.9
2017-Sep-14 23:30N 29°35' W 090°43'1 2.5
2017-Sep-14 23:00N 29°34' W 090°44'0 0.4
2017-Sep-14 22:30N 29°34' W 090°44'0 0.0
2017-Sep-14 22:00N 29°34' W 090°44'0 0.0
2017-Sep-14 21:30N 29°34' W 090°44'1 1.9
2017-Sep-14 21:00N 29°33' W 090°45'1 1.8
2017-Sep-14 20:30N 29°33' W 090°46'2 3.3
2017-Sep-14 20:01N 29°32' W 090°47'2 4.1
2017-Sep-14 19:30N 29°32' W 090°50'3 4.5
2017-Sep-14 18:57N 29°32' W 090°53'2 4.7
2017-Sep-14 18:30N 29°33' W 090°55'59 3.2
2017-Sep-14 00:13N 29°50' W 091°60'1 4.7
2017-Sep-14 00:00N 29°49' W 092°01'2 4.5
2017-Sep-13 23:30N 29°49' W 092°03'2 4.5
2017-Sep-13 23:00N 29°48' W 092°06'2 4.4
2017-Sep-13 22:30N 29°47' W 092°08'2 4.4
2017-Sep-13 22:00N 29°47' W 092°11'2 3.8
2017-Sep-13 21:30N 29°47' W 092°13'2 3.8
2017-Sep-13 21:00N 29°48' W 092°15'2 4.4
2017-Sep-13 20:30N 29°49' W 092°17'4 4.5
2017-Sep-13 19:40N 29°51' W 092°21'37 4.2
2017-Sep-13 10:43N 29°56' W 093°03'1 3.8
2017-Sep-13 10:30N 29°56' W 093°04'2 3.6
2017-Sep-13 10:00N 29°56' W 093°06'2 3.3
2017-Sep-13 09:30N 29°56' W 093°08'2 3.2
2017-Sep-13 09:00N 29°56' W 093°10'2 3.7
2017-Sep-13 08:30N 29°58' W 093°11'2 3.5
2017-Sep-13 08:00N 29°59' W 093°13'2 3.2
2017-Sep-13 07:30N 30°00' W 093°14'1 2.8
2017-Sep-13 07:00N 30°02' W 093°14'2 3.1
2017-Sep-13 06:30N 30°03' W 093°16'2 3.2
2017-Sep-13 06:00N 30°04' W 093°16'2 3.1
2017-Sep-13 05:30N 30°05' W 093°18'1 1.3
2017-Sep-13 05:00N 30°06' W 093°18'0 0.0
2017-Sep-13 04:30N 30°06' W 093°18'0 0.0
2017-Sep-13 04:00N 30°06' W 093°18'0 0.0
2017-Sep-13 03:30N 30°06' W 093°18'0 0.0
2017-Sep-13 03:00N 30°06' W 093°18'0 0.1
2017-Sep-13 02:30N 30°06' W 093°18'0 0.0
2017-Sep-13 02:00N 30°06' W 093°18'0 0.0
2017-Sep-13 01:30N 30°06' W 093°18'0 0.2
2017-Sep-13 01:00N 30°06' W 093°18'0 0.3
2017-Sep-13 00:30N 30°06' W 093°18'1 2.5
2017-Sep-13 00:00N 30°06' W 093°20'2 4.4
2017-Sep-12 23:30N 30°08' W 093°20'0 0.3
2017-Sep-12 23:00N 30°08' W 093°20'0 0.8
2017-Sep-12 22:30N 30°08' W 093°19'0 0.0
2017-Sep-12 22:00N 30°08' W 093°19'0 0.0
2017-Sep-12 21:30N 30°08' W 093°19'0 0.0
2017-Sep-12 21:00N 30°08' W 093°19'0 0.0
2017-Sep-12 20:30N 30°08' W 093°19'0 0.0
2017-Sep-12 20:00N 30°08' W 093°19'0 0.0
2017-Sep-12 19:30N 30°08' W 093°19'0 0.0
2017-Sep-12 19:00N 30°08' W 093°19'0 0.0
2017-Sep-12 18:30N 30°08' W 093°19'0 0.0
2017-Sep-12 18:00N 30°08' W 093°19'0 0.0
2017-Sep-12 17:30N 30°08' W 093°19'0 0.0
2017-Sep-12 17:00N 30°08' W 093°19'0 0.0
2017-Sep-12 16:30N 30°08' W 093°19'0 0.0
2017-Sep-12 16:00N 30°08' W 093°19'0 0.0
2017-Sep-12 15:30N 30°08' W 093°19'0 0.0
2017-Sep-12 15:00N 30°08' W 093°19'0 0.0
2017-Sep-12 14:30N 30°08' W 093°19'0 0.0
2017-Sep-12 14:00N 30°08' W 093°19'0 0.0
2017-Sep-12 06:19N 30°08' W 093°19'0 0.0
2017-Sep-12 06:00N 30°08' W 093°19'0 0.0
2017-Sep-12 05:29N 30°08' W 093°19'0 0.0
2017-Sep-12 05:00N 30°08' W 093°19'0 0.0
2017-Sep-12 04:30N 30°08' W 093°19'0 0.0
2017-Sep-12 04:00N 30°08' W 093°19'0 0.0
2017-Sep-12 03:30N 30°08' W 093°19'0 0.0
2017-Sep-12 03:00N 30°08' W 093°19'0 0.0
2017-Sep-12 02:30N 30°08' W 093°19'0 0.0
2017-Sep-12 02:00N 30°08' W 093°19'0 0.0
2017-Sep-12 01:30N 30°08' W 093°19'0 1.0
2017-Sep-12 01:00N 30°08' W 093°20'2 4.0
2017-Sep-12 00:30N 30°06' W 093°20'3 5.1
2017-Sep-12 00:00N 30°04' W 093°21'1 1.4
2017-Sep-11 23:30N 30°04' W 093°22'0 0.0
2017-Sep-11 23:00N 30°04' W 093°22'0 0.0
2017-Sep-11 22:30N 30°04' W 093°22'0 0.0
2017-Sep-11 22:00N 30°04' W 093°22'0 0.0
2017-Sep-11 21:30N 30°04' W 093°22'0 0.0
2017-Sep-11 21:00N 30°04' W 093°22'0 0.9
2017-Sep-11 20:30N 30°04' W 093°21'0 0.3
2017-Sep-11 20:00N 30°04' W 093°21'0 0.0
2017-Sep-11 19:30N 30°04' W 093°21'0 0.0
2017-Sep-11 19:00N 30°04' W 093°21'1 1.2
2017-Sep-11 18:30N 30°04' W 093°22'0 0.0
2017-Sep-11 18:00N 30°04' W 093°22'0 0.0
2017-Sep-11 17:30N 30°04' W 093°22'0 0.0
2017-Sep-11 17:00N 30°04' W 093°22'0 0.0
2017-Sep-11 16:30N 30°04' W 093°22'0 0.0
2017-Sep-11 16:00N 30°04' W 093°22'0 0.0
2017-Sep-11 15:30N 30°04' W 093°22'0 0.0
2017-Sep-11 14:52N 30°04' W 093°22'0 0.0
2017-Sep-11 14:30N 30°04' W 093°22'0 0.0
2017-Sep-11 14:00N 30°04' W 093°22'0 0.0
2017-Sep-11 13:28N 30°04' W 093°22'0 0.0
2017-Sep-11 12:01N 30°04' W 093°22'0 0.0
2017-Sep-11 12:00N 30°04' W 093°22'0 0.0
2017-Sep-11 11:28N 30°04' W 093°22'0 0.0
2017-Sep-11 11:00N 30°04' W 093°22'0 0.0
2017-Sep-11 10:30N 30°04' W 093°22'0 0.0
2017-Sep-11 09:57N 30°04' W 093°22'0 0.0
2017-Sep-11 09:30N 30°04' W 093°22'0 0.0
2017-Sep-11 09:00N 30°04' W 093°22'0 0.0
2017-Sep-11 08:28N 30°04' W 093°22'0 0.0
2017-Sep-11 08:00N 30°04' W 093°22'0 0.0
2017-Sep-11 07:29N 30°04' W 093°22'0 0.0
2017-Sep-11 06:39N 30°04' W 093°22'0 0.0
2017-Sep-11 06:29N 30°04' W 093°22'0 0.5
2017-Sep-11 05:56N 30°04' W 093°22'0 0.8
2017-Sep-11 05:29N 30°04' W 093°21'0 0.1
2017-Sep-11 05:00N 30°04' W 093°21'0 0.0
2017-Sep-11 04:28N 30°04' W 093°21'0 0.0
2017-Sep-11 04:00N 30°04' W 093°21'0 0.0
2017-Sep-11 03:30N 30°04' W 093°21'0 0.0
2017-Sep-11 02:55N 30°04' W 093°21'0 0.0
2017-Sep-11 02:30N 30°04' W 093°21'0 0.0
2017-Sep-11 01:57N 30°04' W 093°21'0 0.0
2017-Sep-11 01:30N 30°04' W 093°21'0 0.0
2017-Sep-11 01:00N 30°04' W 093°21'0 0.0
2017-Sep-11 00:30N 30°04' W 093°21'0 0.0
2017-Sep-11 00:00N 30°04' W 093°21'0 0.0
2017-Sep-10 23:30N 30°04' W 093°21'0 0.0
2017-Sep-10 23:00N 30°04' W 093°21'0 0.0
2017-Sep-10 22:30N 30°04' W 093°21'0 0.0
2017-Sep-10 22:00N 30°04' W 093°21'0 0.0
2017-Sep-10 21:30N 30°04' W 093°21'0 0.0
2017-Sep-10 21:00N 30°04' W 093°21'0 0.0
2017-Sep-10 20:30N 30°04' W 093°21'0 0.0
2017-Sep-10 20:00N 30°04' W 093°21'0 0.0
2017-Sep-10 19:30N 30°04' W 093°21'0 0.0
2017-Sep-10 19:00N 30°04' W 093°21'0 0.0
2017-Sep-10 18:30N 30°04' W 093°21'0 0.0
2017-Sep-10 18:00N 30°04' W 093°21'0 0.0
2017-Sep-10 17:30N 30°04' W 093°21'0 0.0
2017-Sep-10 17:00N 30°04' W 093°21'0 0.0
2017-Sep-10 16:30N 30°04' W 093°21'0 0.0
2017-Sep-10 16:00N 30°04' W 093°21'0 0.0
2017-Sep-10 15:30N 30°04' W 093°21'0 0.0
2017-Sep-10 15:00N 30°04' W 093°21'0 0.0
2017-Sep-10 14:00N 30°04' W 093°21'0 0.0
2017-Sep-10 12:53N 30°04' W 093°21'0 0.0
2017-Sep-10 12:30N 30°04' W 093°21'0 0.0
2017-Sep-10 11:57N 30°04' W 093°21'0 0.0
2017-Sep-10 10:21N 30°04' W 093°21'0 0.0
2017-Sep-10 10:00N 30°04' W 093°21'0 0.1
2017-Sep-10 09:30N 30°04' W 093°21'1 1.8
2017-Sep-10 09:00N 30°04' W 093°21'2 3.5
2017-Sep-10 08:30N 30°06' W 093°20'0 0.3
2017-Sep-10 07:58N 30°06' W 093°20'0 0.0
2017-Sep-10 07:30N 30°06' W 093°20'0 0.0
2017-Sep-10 07:00N 30°06' W 093°20'0 0.0
2017-Sep-10 06:30N 30°06' W 093°20'0 0.0
2017-Sep-10 06:00N 30°06' W 093°20'0 0.0
2017-Sep-10 05:29N 30°06' W 093°20'0 0.0
2017-Sep-10 05:00N 30°06' W 093°20'0 0.0
2017-Sep-10 04:30N 30°06' W 093°20'0 0.0
2017-Sep-10 04:00N 30°06' W 093°20'0 0.0
2017-Sep-10 03:30N 30°06' W 093°20'0 0.0
2017-Sep-10 03:00N 30°06' W 093°20'0 0.0
2017-Sep-10 02:30N 30°06' W 093°20'0 0.0
2017-Sep-10 02:00N 30°06' W 093°20'0 0.0
2017-Sep-10 01:30N 30°06' W 093°20'0 0.0
2017-Sep-10 01:00N 30°06' W 093°20'0 0.0
2017-Sep-10 00:30N 30°06' W 093°20'0 0.0
2017-Sep-10 00:00N 30°06' W 093°20'0 0.6
2017-Sep-09 23:30N 30°06' W 093°20'3 5.1
2017-Sep-09 23:00N 30°09' W 093°20'2 4.7
2017-Sep-09 22:30N 30°11' W 093°19'0 0.7
2017-Sep-09 22:00N 30°11' W 093°19'0 0.0
2017-Sep-09 21:30N 30°11' W 093°19'0 0.0
2017-Sep-09 21:00N 30°11' W 093°19'0 0.0
2017-Sep-09 20:30N 30°11' W 093°19'0 0.0
2017-Sep-09 20:00N 30°11' W 093°19'0 0.0
2017-Sep-09 19:30N 30°11' W 093°19'0 0.0
2017-Sep-09 19:00N 30°11' W 093°19'0 0.0
2017-Sep-09 18:30N 30°11' W 093°19'0 0.0
2017-Sep-09 18:00N 30°11' W 093°19'0 0.0
2017-Sep-09 17:30N 30°11' W 093°19'0 0.0
2017-Sep-09 17:00N 30°11' W 093°19'0 0.0
2017-Sep-09 16:30N 30°11' W 093°19'0 0.0
2017-Sep-09 16:00N 30°11' W 093°19'0 0.0
2017-Sep-09 15:30N 30°11' W 093°19'0 0.0
2017-Sep-09 15:00N 30°11' W 093°19'0 0.0
2017-Sep-09 14:29N 30°11' W 093°19'0 0.0
2017-Sep-09 13:58N 30°11' W 093°19'0 0.0
2017-Sep-09 13:13N 30°11' W 093°19'0 0.0
2017-Sep-09 13:00N 30°11' W 093°19'0 0.0
2017-Sep-09 12:30N 30°11' W 093°19'0 0.0
2017-Sep-09 12:00N 30°11' W 093°19'0 0.0
2017-Sep-09 11:29N 30°11' W 093°19'0 0.0
2017-Sep-09 10:57N 30°11' W 093°19'0 0.0
2017-Sep-09 10:26N 30°11' W 093°19'0 0.0
2017-Sep-09 09:58N 30°11' W 093°19'0 0.0
2017-Sep-09 09:30N 30°11' W 093°19'0 0.0
2017-Sep-09 08:58N 30°11' W 093°19'0 0.0
2017-Sep-09 08:30N 30°11' W 093°19'0 0.0
2017-Sep-09 07:59N 30°11' W 093°19'0 0.0
2017-Sep-09 07:30N 30°11' W 093°19'0 0.0
2017-Sep-09 07:00N 30°11' W 093°19'0 0.0
2017-Sep-09 06:30N 30°11' W 093°19'0 0.0
2017-Sep-09 04:29N 30°11' W 093°19'0 0.0
2017-Sep-09 03:50N 30°11' W 093°19'0 0.0
2017-Sep-09 03:10N 30°11' W 093°19'0 0.0
2017-Sep-09 03:00N 30°11' W 093°19'0 0.0
2017-Sep-09 02:22N 30°11' W 093°19'0 0.0
2017-Sep-09 02:00N 30°11' W 093°19'0 0.0
2017-Sep-09 01:21N 30°11' W 093°19'0 0.0
2017-Sep-09 01:00N 30°11' W 093°19'0 0.0
2017-Sep-09 00:30N 30°11' W 093°19'0 0.0
2017-Sep-09 00:00N 30°11' W 093°19'0 0.0
2017-Sep-08 23:30N 30°11' W 093°19'0 0.0
2017-Sep-08 23:00N 30°11' W 093°19'0 0.0
2017-Sep-08 22:30N 30°11' W 093°19'0 0.0
2017-Sep-08 22:00N 30°11' W 093°19'0 0.0
2017-Sep-08 21:30N 30°11' W 093°19'0 0.0
2017-Sep-08 21:00N 30°11' W 093°19'0 0.0
2017-Sep-08 20:30N 30°11' W 093°19'0 0.0
2017-Sep-08 20:00N 30°11' W 093°19'0 0.0
2017-Sep-08 19:30N 30°11' W 093°19'0 0.0
2017-Sep-08 19:00N 30°11' W 093°19'0 0.0
2017-Sep-08 18:30N 30°11' W 093°19'0 0.0
2017-Sep-08 18:00N 30°11' W 093°19'0 0.0
2017-Sep-08 17:30N 30°11' W 093°19'0 0.0
2017-Sep-08 17:00N 30°11' W 093°19'0 0.0
2017-Sep-08 16:30N 30°11' W 093°19'0 0.0
2017-Sep-08 16:00N 30°11' W 093°19'0 0.0
2017-Sep-08 15:30N 30°11' W 093°19'0 0.0
2017-Sep-08 15:00N 30°11' W 093°19'0 0.0
2017-Sep-08 14:30N 30°11' W 093°19'0 0.0
2017-Sep-08 14:00N 30°11' W 093°19'0 0.0
2017-Sep-08 13:30N 30°11' W 093°19'0 0.0
2017-Sep-08 13:00N 30°11' W 093°19'0 0.0
2017-Sep-08 12:30N 30°11' W 093°19'0 0.0
2017-Sep-08 12:00N 30°11' W 093°19'0 0.0
2017-Sep-08 11:30N 30°11' W 093°19'0 0.0
2017-Sep-08 09:54N 30°11' W 093°19'0 0.0
2017-Sep-08 08:49N 30°11' W 093°19'0 0.0
2017-Sep-08 08:18N 30°11' W 093°19'0 0.0
2017-Sep-08 07:55N 30°11' W 093°19'0 0.0
2017-Sep-08 07:30N 30°11' W 093°19'0 0.0
2017-Sep-08 06:44N 30°11' W 093°19'0 0.0
2017-Sep-08 06:16N 30°11' W 093°19'0 0.0
2017-Sep-08 04:57N 30°11' W 093°19'0 0.0
2017-Sep-08 03:53N 30°11' W 093°19'0 0.0
2017-Sep-08 03:06N 30°11' W 093°19'0 0.1
2017-Sep-08 02:38N 30°11' W 093°19'1 1.6
2017-Sep-08 02:17N 30°11' W 093°19'1 3.9
2017-Sep-08 02:00N 30°10' W 093°19'2 3.7
2017-Sep-08 01:30N 30°08' W 093°20'2 3.6
2017-Sep-08 01:00N 30°06' W 093°20'2 3.4
2017-Sep-08 00:30N 30°04' W 093°20'1 2.8
2017-Sep-08 00:00N 30°04' W 093°22'0 0.1
2017-Sep-07 23:30N 30°04' W 093°22'0 0.0
2017-Sep-07 23:00N 30°04' W 093°22'0 0.0
2017-Sep-07 22:31N 30°04' W 093°22'0 0.0
2017-Sep-07 22:00N 30°04' W 093°22'0 0.0
2017-Sep-07 21:31N 30°04' W 093°22'0 0.0
2017-Sep-07 21:00N 30°04' W 093°22'0 0.0
2017-Sep-07 20:30N 30°04' W 093°22'0 0.0
2017-Sep-07 20:01N 30°04' W 093°22'0 0.0
2017-Sep-07 19:30N 30°04' W 093°22'0 0.0
2017-Sep-07 19:00N 30°04' W 093°22'0 0.0
2017-Sep-07 18:31N 30°04' W 093°22'0 0.0
2017-Sep-07 18:01N 30°04' W 093°22'0 0.0
2017-Sep-07 17:31N 30°04' W 093°22'0 0.0
2017-Sep-07 17:00N 30°04' W 093°22'0 0.0
2017-Sep-07 16:31N 30°04' W 093°22'0 0.0
2017-Sep-07 16:00N 30°04' W 093°22'0 0.0
2017-Sep-07 15:31N 30°04' W 093°22'0 0.0
2017-Sep-07 15:01N 30°04' W 093°22'0 0.0
2017-Sep-07 14:31N 30°04' W 093°22'0 0.0
2017-Sep-07 12:08N 30°04' W 093°22'0 0.0
2017-Sep-07 11:59N 30°04' W 093°22'0 0.0
2017-Sep-07 11:30N 30°04' W 093°22'0 0.0
2017-Sep-07 11:01N 30°04' W 093°22'0 0.0
2017-Sep-07 10:29N 30°04' W 093°22'0 0.0
2017-Sep-07 10:00N 30°04' W 093°22'0 0.0
2017-Sep-07 09:31N 30°04' W 093°22'0 0.0
2017-Sep-07 09:00N 30°04' W 093°22'0 0.0
2017-Sep-07 08:31N 30°04' W 093°22'0 0.0
2017-Sep-07 08:01N 30°04' W 093°22'0 0.0
2017-Sep-07 07:31N 30°04' W 093°22'0 0.0
2017-Sep-07 07:01N 30°04' W 093°22'0 0.0
2017-Sep-07 06:30N 30°04' W 093°22'0 0.0
2017-Sep-07 06:01N 30°04' W 093°22'0 0.0
2017-Sep-07 05:30N 30°04' W 093°22'0 0.0
2017-Sep-07 05:01N 30°04' W 093°22'0 0.0
2017-Sep-07 04:30N 30°04' W 093°22'0 0.0
2017-Sep-07 04:01N 30°04' W 093°22'0 0.0
2017-Sep-07 03:30N 30°04' W 093°22'0 0.0
2017-Sep-07 03:00N 30°04' W 093°22'0 0.0
2017-Sep-07 02:30N 30°04' W 093°22'0 0.0
2017-Sep-07 02:01N 30°04' W 093°22'0 0.0
2017-Sep-07 01:30N 30°04' W 093°22'0 0.0
2017-Sep-07 01:01N 30°04' W 093°22'0 0.0
2017-Sep-07 00:31N 30°04' W 093°22'0 0.0
2017-Sep-07 00:00N 30°04' W 093°22'0 0.0
2017-Sep-06 23:30N 30°04' W 093°22'0 0.0
2017-Sep-06 23:01N 30°04' W 093°22'0 0.0
2017-Sep-06 22:30N 30°04' W 093°22'0 0.0
2017-Sep-06 22:01N 30°04' W 093°22'0 0.0
2017-Sep-06 21:31N 30°04' W 093°22'0 0.0
2017-Sep-06 21:01N 30°04' W 093°22'0 0.0
2017-Sep-06 20:30N 30°04' W 093°22'0 0.0
2017-Sep-06 20:00N 30°04' W 093°22'0 0.0
2017-Sep-06 19:30N 30°04' W 093°22'0 0.0
2017-Sep-06 19:01N 30°04' W 093°22'0 0.0
2017-Sep-06 18:30N 30°04' W 093°22'0 0.0
2017-Sep-06 18:01N 30°04' W 093°22'0 0.0
2017-Sep-06 17:31N 30°04' W 093°22'0 0.0
2017-Sep-06 17:01N 30°04' W 093°22'0 0.0
2017-Sep-06 16:31N 30°04' W 093°22'0 0.0
2017-Sep-06 16:00N 30°04' W 093°22'0 0.0
2017-Sep-06 15:31N 30°04' W 093°22'0 0.0
2017-Sep-06 15:01N 30°04' W 093°22'0 0.0
2017-Sep-06 14:30N 30°04' W 093°22'0 0.0
2017-Sep-06 14:01N 30°04' W 093°22'0 0.0
2017-Sep-06 13:31N 30°04' W 093°22'0 0.8
2017-Sep-06 13:01N 30°04' W 093°21'0 0.0
2017-Sep-06 12:31N 30°04' W 093°21'0 0.8
2017-Sep-06 12:00N 30°04' W 093°22'0 0.1
2017-Sep-06 11:31N 30°04' W 093°22'0 0.0
2017-Sep-06 11:01N 30°04' W 093°22'0 0.0
2017-Sep-06 10:30N 30°04' W 093°22'0 0.0
2017-Sep-06 10:00N 30°04' W 093°22'0 0.0
2017-Sep-06 09:31N 30°04' W 093°22'0 0.0
2017-Sep-06 09:00N 30°04' W 093°22'0 0.0
2017-Sep-06 08:31N 30°04' W 093°22'0 0.0
2017-Sep-06 08:01N 30°04' W 093°22'0 0.0
2017-Sep-06 07:30N 30°04' W 093°22'0 0.0
2017-Sep-06 07:01N 30°04' W 093°22'0 0.0
2017-Sep-06 06:31N 30°04' W 093°22'0 0.0
2017-Sep-06 06:00N 30°04' W 093°22'0 0.0
2017-Sep-06 05:31N 30°04' W 093°22'0 0.0
2017-Sep-06 05:01N 30°04' W 093°22'0 0.0
2017-Sep-06 04:31N 30°04' W 093°22'0 0.0
2017-Sep-06 04:01N 30°04' W 093°22'0 0.0
2017-Sep-06 03:30N 30°04' W 093°22'0 0.0
2017-Sep-06 03:01N 30°04' W 093°22'0 0.0
2017-Sep-06 02:31N 30°04' W 093°22'0 0.0
2017-Sep-06 02:01N 30°04' W 093°22'0 0.0
2017-Sep-06 01:30N 30°04' W 093°22'0 0.0
2017-Sep-06 01:01N 30°04' W 093°22'0 0.4
2017-Sep-06 00:31N 30°04' W 093°22'2 3.6
2017-Sep-06 00:01N 30°05' W 093°20'2 4.3
2017-Sep-05 23:30N 30°06' W 093°18'0 0.0
2017-Sep-05 23:00N 30°06' W 093°18'0 0.0
2017-Sep-05 22:30N 30°06' W 093°18'0 0.7
2017-Sep-05 22:00N 30°06' W 093°19'3 6.8
2017-Sep-05 21:31N 30°04' W 093°21'0 0.2
2017-Sep-05 21:01N 30°04' W 093°21'0 0.0
2017-Sep-05 20:30N 30°04' W 093°21'0 0.0
2017-Sep-05 20:00N 30°04' W 093°21'0 0.0
2017-Sep-05 14:08N 30°04' W 093°21'0 0.0
2017-Sep-05 14:00N 30°04' W 093°21'0 0.0
2017-Sep-05 13:30N 30°04' W 093°21'0 0.8
2017-Sep-05 13:00N 30°04' W 093°22'0 0.0
2017-Sep-05 12:30N 30°04' W 093°22'0 0.0
2017-Sep-05 12:00N 30°04' W 093°22'0 0.0
2017-Sep-05 11:30N 30°04' W 093°22'0 0.0
2017-Sep-05 11:00N 30°04' W 093°22'0 0.0
2017-Sep-05 10:30N 30°04' W 093°22'0 0.0
2017-Sep-05 10:00N 30°04' W 093°22'0 0.0
2017-Sep-05 09:30N 30°04' W 093°22'0 0.0
2017-Sep-05 09:00N 30°04' W 093°22'0 0.0
2017-Sep-05 08:30N 30°04' W 093°22'0 0.0
2017-Sep-05 08:01N 30°04' W 093°22'0 0.0
2017-Sep-05 07:31N 30°04' W 093°22'0 0.0
2017-Sep-05 07:00N 30°04' W 093°22'0 0.0
2017-Sep-05 06:31N 30°04' W 093°22'0 0.0
2017-Sep-05 06:01N 30°04' W 093°22'0 0.0
2017-Sep-05 05:31N 30°04' W 093°22'0 0.0
2017-Sep-05 05:00N 30°04' W 093°22'  
Track history (hours):
 
Tides and Currents Weather Stations Pressure Air Temp Water Temp Dewpoint Dewpoint Depression Visibility Wind Speed Wind Dir Waves Ship Positions

MiSS Danielle

Owner: Chem Carriers Towing, LLC, Sunshine, LA. More information available from US FCC via Universal Licensing System and Coast Guard Vessel Documentation Center.

Last reported at 2017-Sep-15 04:47 UTC. Time now 2017-Sep-24 03:34 UTC.
Position N 29°33' W 090°24'.
Warning: this ship's position is 8 days out of date.

Length 24 m; draft 3 m.

Type: Towing. MMSI: 367578080.

Date/timePositionNaut miles runAvg speedWind from/ knotsBaromVisibWave heightAir tempDewpointWater temp
2017-Sep-15 04:47N 29°33' W 090°24'0 0.3
2017-Sep-15 04:30N 29°33' W 090°24'1 1.2
2017-Sep-15 04:00N 29°33' W 090°25'2 4.6
2017-Sep-15 03:29N 29°33' W 090°28'2 4.6
2017-Sep-15 03:00N 29°34' W 090°30'2 4.6
2017-Sep-15 02:30N 29°34' W 090°33'2 4.3
2017-Sep-15 02:00N 29°35' W 090°35'2 4.1
2017-Sep-15 01:30N 29°35' W 090°38'2 4.2
2017-Sep-15 01:00N 29°36' W 090°40'1 1.8
2017-Sep-15 00:30N 29°36' W 090°41'2 3.2
2017-Sep-15 00:00N 29°37' W 090°42'2 3.9
2017-Sep-14 23:30N 29°35' W 090°43'1 2.5
2017-Sep-14 23:00N 29°34' W 090°44'0 0.4
2017-Sep-14 22:30N 29°34' W 090°44'0 0.0
2017-Sep-14 22:00N 29°34' W 090°44'0 0.0
2017-Sep-14 21:30N 29°34' W 090°44'1 1.9
2017-Sep-14 21:00N 29°33' W 090°45'1 1.8
2017-Sep-14 20:30N 29°33' W 090°46'2 3.3
2017-Sep-14 20:01N 29°32' W 090°47'2 4.1
2017-Sep-14 19:30N 29°32' W 090°50'3 4.5
2017-Sep-14 18:57N 29°32' W 090°53'2 4.7
2017-Sep-14 18:30N 29°33' W 090°55'59 3.2
2017-Sep-14 00:13N 29°50' W 091°60'1 4.7
2017-Sep-14 00:00N 29°49' W 092°01'2 4.5
2017-Sep-13 23:30N 29°49' W 092°03'2 4.5
2017-Sep-13 23:00N 29°48' W 092°06'2 4.4
2017-Sep-13 22:30N 29°47' W 092°08'2 4.4
2017-Sep-13 22:00N 29°47' W 092°11'2 3.8
2017-Sep-13 21:30N 29°47' W 092°13'2 3.8
2017-Sep-13 21:00N 29°48' W 092°15'2 4.4
2017-Sep-13 20:30N 29°49' W 092°17'4 4.5
2017-Sep-13 19:40N 29°51' W 092°21'37 4.2
2017-Sep-13 10:43N 29°56' W 093°03'1 3.8
2017-Sep-13 10:30N 29°56' W 093°04'2 3.6
2017-Sep-13 10:00N 29°56' W 093°06'2 3.3
2017-Sep-13 09:30N 29°56' W 093°08'2 3.2
2017-Sep-13 09:00N 29°56' W 093°10'2 3.7
2017-Sep-13 08:30N 29°58' W 093°11'2 3.5
2017-Sep-13 08:00N 29°59' W 093°13'2 3.2
2017-Sep-13 07:30N 30°00' W 093°14'1 2.8
2017-Sep-13 07:00N 30°02' W 093°14'2 3.1
2017-Sep-13 06:30N 30°03' W 093°16'2 3.2
2017-Sep-13 06:00N 30°04' W 093°16'2 3.1
2017-Sep-13 05:30N 30°05' W 093°18'1 1.3
2017-Sep-13 05:00N 30°06' W 093°18'0 0.0
2017-Sep-13 04:30N 30°06' W 093°18'0 0.0
2017-Sep-13 04:00N 30°06' W 093°18'0 0.0
2017-Sep-13 03:30N 30°06' W 093°18'0 0.0
2017-Sep-13 03:00N 30°06' W 093°18'0 0.1
2017-Sep-13 02:30N 30°06' W 093°18'0 0.0
2017-Sep-13 02:00N 30°06' W 093°18'0 0.0
2017-Sep-13 01:30N 30°06' W 093°18'0 0.2
2017-Sep-13 01:00N 30°06' W 093°18'0 0.3
2017-Sep-13 00:30N 30°06' W 093°18'1 2.5
2017-Sep-13 00:00N 30°06' W 093°20'2 4.4
2017-Sep-12 23:30N 30°08' W 093°20'0 0.3
2017-Sep-12 23:00N 30°08' W 093°20'0 0.8
2017-Sep-12 22:30N 30°08' W 093°19'0 0.0
2017-Sep-12 22:00N 30°08' W 093°19'0 0.0
2017-Sep-12 21:30N 30°08' W 093°19'0 0.0
2017-Sep-12 21:00N 30°08' W 093°19'0 0.0
2017-Sep-12 20:30N 30°08' W 093°19'0 0.0
2017-Sep-12 20:00N 30°08' W 093°19'0 0.0
2017-Sep-12 19:30N 30°08' W 093°19'0 0.0
2017-Sep-12 19:00N 30°08' W 093°19'0 0.0
2017-Sep-12 18:30N 30°08' W 093°19'0 0.0
2017-Sep-12 18:00N 30°08' W 093°19'0 0.0
2017-Sep-12 17:30N 30°08' W 093°19'0 0.0
2017-Sep-12 17:00N 30°08' W 093°19'0 0.0
2017-Sep-12 16:30N 30°08' W 093°19'0 0.0
2017-Sep-12 16:00N 30°08' W 093°19'0 0.0
2017-Sep-12 15:30N 30°08' W 093°19'0 0.0
2017-Sep-12 15:00N 30°08' W 093°19'0 0.0
2017-Sep-12 14:30N 30°08' W 093°19'0 0.0
2017-Sep-12 14:00N 30°08' W 093°19'0 0.0
2017-Sep-12 06:19N 30°08' W 093°19'0 0.0
2017-Sep-12 06:00N 30°08' W 093°19'0 0.0
2017-Sep-12 05:29N 30°08' W 093°19'0 0.0
2017-Sep-12 05:00N 30°08' W 093°19'0 0.0
2017-Sep-12 04:30N 30°08' W 093°19'0 0.0
2017-Sep-12 04:00N 30°08' W 093°19'0 0.0
2017-Sep-12 03:30N 30°08' W 093°19'0 0.0
2017-Sep-12 03:00N 30°08' W 093°19'0 0.0
2017-Sep-12 02:30N 30°08' W 093°19'0 0.0
2017-Sep-12 02:00N 30°08' W 093°19'0 0.0
2017-Sep-12 01:30N 30°08' W 093°19'0 1.0
2017-Sep-12 01:00N 30°08' W 093°20'2 4.0
2017-Sep-12 00:30N 30°06' W 093°20'3 5.1
2017-Sep-12 00:00N 30°04' W 093°21'1 1.4
2017-Sep-11 23:30N 30°04' W 093°22'0 0.0
2017-Sep-11 23:00N 30°04' W 093°22'0 0.0
2017-Sep-11 22:30N 30°04' W 093°22'0 0.0
2017-Sep-11 22:00N 30°04' W 093°22'0 0.0
2017-Sep-11 21:30N 30°04' W 093°22'0 0.0
2017-Sep-11 21:00N 30°04' W 093°22'0 0.9
2017-Sep-11 20:30N 30°04' W 093°21'0 0.3
2017-Sep-11 20:00N 30°04' W 093°21'0 0.0
2017-Sep-11 19:30N 30°04' W 093°21'0 0.0
2017-Sep-11 19:00N 30°04' W 093°21'1 1.2
2017-Sep-11 18:30N 30°04' W 093°22'0 0.0
2017-Sep-11 18:00N 30°04' W 093°22'0 0.0
2017-Sep-11 17:30N 30°04' W 093°22'0 0.0
2017-Sep-11 17:00N 30°04' W 093°22'0 0.0
2017-Sep-11 16:30N 30°04' W 093°22'0 0.0
2017-Sep-11 16:00N 30°04' W 093°22'0 0.0
2017-Sep-11 15:30N 30°04' W 093°22'0 0.0
2017-Sep-11 14:52N 30°04' W 093°22'0 0.0
2017-Sep-11 14:30N 30°04' W 093°22'0 0.0
2017-Sep-11 14:00N 30°04' W 093°22'0 0.0
2017-Sep-11 13:28N 30°04' W 093°22'0 0.0
2017-Sep-11 12:01N 30°04' W 093°22'0 0.0
2017-Sep-11 12:00N 30°04' W 093°22'0 0.0
2017-Sep-11 11:28N 30°04' W 093°22'0 0.0
2017-Sep-11 11:00N 30°04' W 093°22'0 0.0
2017-Sep-11 10:30N 30°04' W 093°22'0 0.0
2017-Sep-11 09:57N 30°04' W 093°22'0 0.0
2017-Sep-11 09:30N 30°04' W 093°22'0 0.0
2017-Sep-11 09:00N 30°04' W 093°22'0 0.0
2017-Sep-11 08:28N 30°04' W 093°22'0 0.0
2017-Sep-11 08:00N 30°04' W 093°22'0 0.0
2017-Sep-11 07:29N 30°04' W 093°22'0 0.0
2017-Sep-11 06:39N 30°04' W 093°22'0 0.0
2017-Sep-11 06:29N 30°04' W 093°22'0 0.5
2017-Sep-11 05:56N 30°04' W 093°22'0 0.8
2017-Sep-11 05:29N 30°04' W 093°21'0 0.1
2017-Sep-11 05:00N 30°04' W 093°21'0 0.0
2017-Sep-11 04:28N 30°04' W 093°21'0 0.0
2017-Sep-11 04:00N 30°04' W 093°21'0 0.0
2017-Sep-11 03:30N 30°04' W 093°21'0 0.0
2017-Sep-11 02:55N 30°04' W 093°21'0 0.0
2017-Sep-11 02:30N 30°04' W 093°21'0 0.0
2017-Sep-11 01:57N 30°04' W 093°21'0 0.0
2017-Sep-11 01:30N 30°04' W 093°21'0 0.0
2017-Sep-11 01:00N 30°04' W 093°21'0 0.0
2017-Sep-11 00:30N 30°04' W 093°21'0 0.0
2017-Sep-11 00:00N 30°04' W 093°21'0 0.0
2017-Sep-10 23:30N 30°04' W 093°21'0 0.0
2017-Sep-10 23:00N 30°04' W 093°21'0 0.0
2017-Sep-10 22:30N 30°04' W 093°21'0 0.0
2017-Sep-10 22:00N 30°04' W 093°21'0 0.0
2017-Sep-10 21:30N 30°04' W 093°21'0 0.0
2017-Sep-10 21:00N 30°04' W 093°21'0 0.0
2017-Sep-10 20:30N 30°04' W 093°21'0 0.0
2017-Sep-10 20:00N 30°04' W 093°21'0 0.0
2017-Sep-10 19:30N 30°04' W 093°21'0 0.0
2017-Sep-10 19:00N 30°04' W 093°21'0 0.0
2017-Sep-10 18:30N 30°04' W 093°21'0 0.0
2017-Sep-10 18:00N 30°04' W 093°21'0 0.0
2017-Sep-10 17:30N 30°04' W 093°21'0 0.0
2017-Sep-10 17:00N 30°04' W 093°21'0 0.0
2017-Sep-10 16:30N 30°04' W 093°21'0 0.0
2017-Sep-10 16:00N 30°04' W 093°21'0 0.0
2017-Sep-10 15:30N 30°04' W 093°21'0 0.0
2017-Sep-10 15:00N 30°04' W 093°21'0 0.0
2017-Sep-10 14:00N 30°04' W 093°21'0 0.0
2017-Sep-10 12:53N 30°04' W 093°21'0 0.0
2017-Sep-10 12:30N 30°04' W 093°21'0 0.0
2017-Sep-10 11:57N 30°04' W 093°21'0 0.0
2017-Sep-10 10:21N 30°04' W 093°21'0 0.0
2017-Sep-10 10:00N 30°04' W 093°21'0 0.1
2017-Sep-10 09:30N 30°04' W 093°21'1 1.8
2017-Sep-10 09:00N 30°04' W 093°21'2 3.5
2017-Sep-10 08:30N 30°06' W 093°20'0 0.3
2017-Sep-10 07:58N 30°06' W 093°20'0 0.0
2017-Sep-10 07:30N 30°06' W 093°20'0 0.0
2017-Sep-10 07:00N 30°06' W 093°20'0 0.0
2017-Sep-10 06:30N 30°06' W 093°20'0 0.0
2017-Sep-10 06:00N 30°06' W 093°20'0 0.0
2017-Sep-10 05:29N 30°06' W 093°20'0 0.0
2017-Sep-10 05:00N 30°06' W 093°20'0 0.0
2017-Sep-10 04:30N 30°06' W 093°20'0 0.0
2017-Sep-10 04:00N 30°06' W 093°20'0 0.0
2017-Sep-10 03:30N 30°06' W 093°20'0 0.0
2017-Sep-10 03:00N 30°06' W 093°20'0 0.0
2017-Sep-10 02:30N 30°06' W 093°20'0 0.0
2017-Sep-10 02:00N 30°06' W 093°20'0 0.0
2017-Sep-10 01:30N 30°06' W 093°20'0 0.0
2017-Sep-10 01:00N 30°06' W 093°20'0 0.0
2017-Sep-10 00:30N 30°06' W 093°20'0 0.0
2017-Sep-10 00:00N 30°06' W 093°20'0 0.6
2017-Sep-09 23:30N 30°06' W 093°20'3 5.1
2017-Sep-09 23:00N 30°09' W 093°20'2 4.7
2017-Sep-09 22:30N 30°11' W 093°19'0 0.7
2017-Sep-09 22:00N 30°11' W 093°19'0 0.0
2017-Sep-09 21:30N 30°11' W 093°19'0 0.0
2017-Sep-09 21:00N 30°11' W 093°19'0 0.0
2017-Sep-09 20:30N 30°11' W 093°19'0 0.0
2017-Sep-09 20:00N 30°11' W 093°19'0 0.0
2017-Sep-09 19:30N 30°11' W 093°19'0 0.0
2017-Sep-09 19:00N 30°11' W 093°19'0 0.0
2017-Sep-09 18:30N 30°11' W 093°19'0 0.0
2017-Sep-09 18:00N 30°11' W 093°19'0 0.0
2017-Sep-09 17:30N 30°11' W 093°19'0 0.0
2017-Sep-09 17:00N 30°11' W 093°19'0 0.0
2017-Sep-09 16:30N 30°11' W 093°19'0 0.0
2017-Sep-09 16:00N 30°11' W 093°19'0 0.0
2017-Sep-09 15:30N 30°11' W 093°19'0 0.0
2017-Sep-09 15:00N 30°11' W 093°19'0 0.0
2017-Sep-09 14:29N 30°11' W 093°19'0 0.0
2017-Sep-09 13:58N 30°11' W 093°19'0 0.0
2017-Sep-09 13:13N 30°11' W 093°19'0 0.0
2017-Sep-09 13:00N 30°11' W 093°19'0 0.0
2017-Sep-09 12:30N 30°11' W 093°19'0 0.0
2017-Sep-09 12:00N 30°11' W 093°19'0 0.0
2017-Sep-09 11:29N 30°11' W 093°19'0 0.0
2017-Sep-09 10:57N 30°11' W 093°19'0 0.0
2017-Sep-09 10:26N 30°11' W 093°19'0 0.0
2017-Sep-09 09:58N 30°11' W 093°19'0 0.0
2017-Sep-09 09:30N 30°11' W 093°19'0 0.0
2017-Sep-09 08:58N 30°11' W 093°19'0 0.0
2017-Sep-09 08:30N 30°11' W 093°19'0 0.0
2017-Sep-09 07:59N 30°11' W 093°19'0 0.0
2017-Sep-09 07:30N 30°11' W 093°19'0 0.0
2017-Sep-09 07:00N 30°11' W 093°19'0 0.0
2017-Sep-09 06:30N 30°11' W 093°19'0 0.0
2017-Sep-09 04:29N 30°11' W 093°19'0 0.0
2017-Sep-09 03:50N 30°11' W 093°19'0 0.0
2017-Sep-09 03:10N 30°11' W 093°19'0 0.0
2017-Sep-09 03:00N 30°11' W 093°19'0 0.0
2017-Sep-09 02:22N 30°11' W 093°19'0 0.0
2017-Sep-09 02:00N 30°11' W 093°19'0 0.0
2017-Sep-09 01:21N 30°11' W 093°19'0 0.0
2017-Sep-09 01:00N 30°11' W 093°19'0 0.0
2017-Sep-09 00:30N 30°11' W 093°19'0 0.0
2017-Sep-09 00:00N 30°11' W 093°19'0 0.0
2017-Sep-08 23:30N 30°11' W 093°19'0 0.0
2017-Sep-08 23:00N 30°11' W 093°19'0 0.0
2017-Sep-08 22:30N 30°11' W 093°19'0 0.0
2017-Sep-08 22:00N 30°11' W 093°19'0 0.0
2017-Sep-08 21:30N 30°11' W 093°19'0 0.0
2017-Sep-08 21:00N 30°11' W 093°19'0 0.0
2017-Sep-08 20:30N 30°11' W 093°19'0 0.0
2017-Sep-08 20:00N 30°11' W 093°19'0 0.0
2017-Sep-08 19:30N 30°11' W 093°19'0 0.0
2017-Sep-08 19:00N 30°11' W 093°19'0 0.0
2017-Sep-08 18:30N 30°11' W 093°19'0 0.0
2017-Sep-08 18:00N 30°11' W 093°19'0 0.0
2017-Sep-08 17:30N 30°11' W 093°19'0 0.0
2017-Sep-08 17:00N 30°11' W 093°19'0 0.0
2017-Sep-08 16:30N 30°11' W 093°19'0 0.0
2017-Sep-08 16:00N 30°11' W 093°19'0 0.0
2017-Sep-08 15:30N 30°11' W 093°19'0 0.0
2017-Sep-08 15:00N 30°11' W 093°19'0 0.0
2017-Sep-08 14:30N 30°11' W 093°19'0 0.0
2017-Sep-08 14:00N 30°11' W 093°19'0 0.0
2017-Sep-08 13:30N 30°11' W 093°19'0 0.0
2017-Sep-08 13:00N 30°11' W 093°19'0 0.0
2017-Sep-08 12:30N 30°11' W 093°19'0 0.0
2017-Sep-08 12:00N 30°11' W 093°19'0 0.0
2017-Sep-08 11:30N 30°11' W 093°19'0 0.0
2017-Sep-08 09:54N 30°11' W 093°19'0 0.0
2017-Sep-08 08:49N 30°11' W 093°19'0 0.0
2017-Sep-08 08:18N 30°11' W 093°19'0 0.0
2017-Sep-08 07:55N 30°11' W 093°19'0 0.0
2017-Sep-08 07:30N 30°11' W 093°19'0 0.0
2017-Sep-08 06:44N 30°11' W 093°19'0 0.0
2017-Sep-08 06:16N 30°11' W 093°19'0 0.0
2017-Sep-08 04:57N 30°11' W 093°19'0 0.0
2017-Sep-08 03:53N 30°11' W 093°19'0 0.0
2017-Sep-08 03:06N 30°11' W 093°19'0 0.1
2017-Sep-08 02:38N 30°11' W 093°19'1 1.6
2017-Sep-08 02:17N 30°11' W 093°19'1 3.9
2017-Sep-08 02:00N 30°10' W 093°19'2 3.7
2017-Sep-08 01:30N 30°08' W 093°20'2 3.6
2017-Sep-08 01:00N 30°06' W 093°20'2 3.4
2017-Sep-08 00:30N 30°04' W 093°20'1 2.8
2017-Sep-08 00:00N 30°04' W 093°22'0 0.1
2017-Sep-07 23:30N 30°04' W 093°22'0 0.0
2017-Sep-07 23:00N 30°04' W 093°22'0 0.0
2017-Sep-07 22:31N 30°04' W 093°22'0 0.0
2017-Sep-07 22:00N 30°04' W 093°22'0 0.0
2017-Sep-07 21:31N 30°04' W 093°22'0 0.0
2017-Sep-07 21:00N 30°04' W 093°22'0 0.0
2017-Sep-07 20:30N 30°04' W 093°22'0 0.0
2017-Sep-07 20:01N 30°04' W 093°22'0 0.0
2017-Sep-07 19:30N 30°04' W 093°22'0 0.0
2017-Sep-07 19:00N 30°04' W 093°22'0 0.0
2017-Sep-07 18:31N 30°04' W 093°22'0 0.0
2017-Sep-07 18:01N 30°04' W 093°22'0 0.0
2017-Sep-07 17:31N 30°04' W 093°22'0 0.0
2017-Sep-07 17:00N 30°04' W 093°22'0 0.0
2017-Sep-07 16:31N 30°04' W 093°22'0 0.0
2017-Sep-07 16:00N 30°04' W 093°22'0 0.0
2017-Sep-07 15:31N 30°04' W 093°22'0 0.0
2017-Sep-07 15:01N 30°04' W 093°22'0 0.0
2017-Sep-07 14:31N 30°04' W 093°22'0 0.0
2017-Sep-07 12:08N 30°04' W 093°22'0 0.0
2017-Sep-07 11:59N 30°04' W 093°22'0 0.0
2017-Sep-07 11:30N 30°04' W 093°22'0 0.0
2017-Sep-07 11:01N 30°04' W 093°22'0 0.0
2017-Sep-07 10:29N 30°04' W 093°22'0 0.0
2017-Sep-07 10:00N 30°04' W 093°22'0 0.0
2017-Sep-07 09:31N 30°04' W 093°22'0 0.0
2017-Sep-07 09:00N 30°04' W 093°22'0 0.0
2017-Sep-07 08:31N 30°04' W 093°22'0 0.0
2017-Sep-07 08:01N 30°04' W 093°22'0 0.0
2017-Sep-07 07:31N 30°04' W 093°22'0 0.0
2017-Sep-07 07:01N 30°04' W 093°22'0 0.0
2017-Sep-07 06:30N 30°04' W 093°22'0 0.0
2017-Sep-07 06:01N 30°04' W 093°22'0 0.0
2017-Sep-07 05:30N 30°04' W 093°22'0 0.0
2017-Sep-07 05:01N 30°04' W 093°22'0 0.0
2017-Sep-07 04:30N 30°04' W 093°22'0 0.0
2017-Sep-07 04:01N 30°04' W 093°22'0 0.0
2017-Sep-07 03:30N 30°04' W 093°22'0 0.0
2017-Sep-07 03:00N 30°04' W 093°22'0 0.0
2017-Sep-07 02:30N 30°04' W 093°22'0 0.0
2017-Sep-07 02:01N 30°04' W 093°22'0 0.0
2017-Sep-07 01:30N 30°04' W 093°22'0 0.0
2017-Sep-07 01:01N 30°04' W 093°22'0 0.0
2017-Sep-07 00:31N 30°04' W 093°22'0 0.0
2017-Sep-07 00:00N 30°04' W 093°22'0 0.0
2017-Sep-06 23:30N 30°04' W 093°22'0 0.0
2017-Sep-06 23:01N 30°04' W 093°22'0 0.0
2017-Sep-06 22:30N 30°04' W 093°22'0 0.0
2017-Sep-06 22:01N 30°04' W 093°22'0 0.0
2017-Sep-06 21:31N 30°04' W 093°22'0 0.0
2017-Sep-06 21:01N 30°04' W 093°22'0 0.0
2017-Sep-06 20:30N 30°04' W 093°22'0 0.0
2017-Sep-06 20:00N 30°04' W 093°22'0 0.0
2017-Sep-06 19:30N 30°04' W 093°22'0 0.0
2017-Sep-06 19:01N 30°04' W 093°22'0 0.0
2017-Sep-06 18:30N 30°04' W 093°22'0 0.0
2017-Sep-06 18:01N 30°04' W 093°22'0 0.0
2017-Sep-06 17:31N 30°04' W 093°22'0 0.0
2017-Sep-06 17:01N 30°04' W 093°22'0 0.0
2017-Sep-06 16:31N 30°04' W 093°22'0 0.0
2017-Sep-06 16:00N 30°04' W 093°22'0 0.0
2017-Sep-06 15:31N 30°04' W 093°22'0 0.0
2017-Sep-06 15:01N 30°04' W 093°22'0 0.0
2017-Sep-06 14:30N 30°04' W 093°22'0 0.0
2017-Sep-06 14:01N 30°04' W 093°22'0 0.0
2017-Sep-06 13:31N 30°04' W 093°22'0 0.8
2017-Sep-06 13:01N 30°04' W 093°21'0 0.0
2017-Sep-06 12:31N 30°04' W 093°21'0 0.8
2017-Sep-06 12:00N 30°04' W 093°22'0 0.1
2017-Sep-06 11:31N 30°04' W 093°22'0 0.0
2017-Sep-06 11:01N 30°04' W 093°22'0 0.0
2017-Sep-06 10:30N 30°04' W 093°22'0 0.0
2017-Sep-06 10:00N 30°04' W 093°22'0 0.0
2017-Sep-06 09:31N 30°04' W 093°22'0 0.0
2017-Sep-06 09:00N 30°04' W 093°22'0 0.0
2017-Sep-06 08:31N 30°04' W 093°22'0 0.0
2017-Sep-06 08:01N 30°04' W 093°22'0 0.0
2017-Sep-06 07:30N 30°04' W 093°22'0 0.0
2017-Sep-06 07:01N 30°04' W 093°22'0 0.0
2017-Sep-06 06:31N 30°04' W 093°22'0 0.0
2017-Sep-06 06:00N 30°04' W 093°22'0 0.0
2017-Sep-06 05:31N 30°04' W 093°22'0 0.0
2017-Sep-06 05:01N 30°04' W 093°22'0 0.0
2017-Sep-06 04:31N 30°04' W 093°22'0 0.0
2017-Sep-06 04:01N 30°04' W 093°22'0 0.0
2017-Sep-06 03:30N 30°04' W 093°22'0 0.0
2017-Sep-06 03:01N 30°04' W 093°22'0 0.0
2017-Sep-06 02:31N 30°04' W 093°22'0 0.0
2017-Sep-06 02:01N 30°04' W 093°22'0 0.0
2017-Sep-06 01:30N 30°04' W 093°22'0 0.0
2017-Sep-06 01:01N 30°04' W 093°22'0 0.4
2017-Sep-06 00:31N 30°04' W 093°22'2 3.6
2017-Sep-06 00:01N 30°05' W 093°20'2 4.3
2017-Sep-05 23:30N 30°06' W 093°18'0 0.0
2017-Sep-05 23:00N 30°06' W 093°18'0 0.0
2017-Sep-05 22:30N 30°06' W 093°18'0 0.7
2017-Sep-05 22:00N 30°06' W 093°19'3 6.8
2017-Sep-05 21:31N 30°04' W 093°21'0 0.2
2017-Sep-05 21:01N 30°04' W 093°21'0 0.0
2017-Sep-05 20:30N 30°04' W 093°21'0 0.0
2017-Sep-05 20:00N 30°04' W 093°21'0 0.0
2017-Sep-05 14:08N 30°04' W 093°21'0 0.0
2017-Sep-05 14:00N 30°04' W 093°21'0 0.0
2017-Sep-05 13:30N 30°04' W 093°21'0 0.8
2017-Sep-05 13:00N 30°04' W 093°22'0 0.0
2017-Sep-05 12:30N 30°04' W 093°22'0 0.0
2017-Sep-05 12:00N 30°04' W 093°22'0 0.0
2017-Sep-05 11:30N 30°04' W 093°22'0 0.0
2017-Sep-05 11:00N 30°04' W 093°22'0 0.0
2017-Sep-05 10:30N 30°04' W 093°22'0 0.0
2017-Sep-05 10:00N 30°04' W 093°22'0 0.0
2017-Sep-05 09:30N 30°04' W 093°22'0 0.0
2017-Sep-05 09:00N 30°04' W 093°22'0 0.0
2017-Sep-05 08:30N 30°04' W 093°22'0 0.0
2017-Sep-05 08:01N 30°04' W 093°22'0 0.0
2017-Sep-05 07:31N 30°04' W 093°22'0 0.0
2017-Sep-05 07:00N 30°04' W 093°22'0 0.0
2017-Sep-05 06:31N 30°04' W 093°22'0 0.0
2017-Sep-05 06:01N 30°04' W 093°22'0 0.0
2017-Sep-05 05:31N 30°04' W 093°22'0 0.0
2017-Sep-05 05:00N 30°04' W 093°22'  

Dump ship's entire track history